Time;durP1;ratioP1;P1;durP2;ratioP2;P2;SDS_P1;SDS_P2;PMS_P1;PMS_P2;Temp;Humidity;BMP_temperature;BMP_pressure;BME280_temperature;BME280_humidity;BME280_pressure;Samples;Min_cycle;Max_cycle;Signal;HPM_P1;HPM_P2
2022/03/30 00:01:03;;;;;;;;;;;8.70;99.90;;;7.23;75.37;100320.09;2565964;30;137270;-40
2022/03/30 00:03:31;;;;;;;;;;;8.70;99.90;;;7.26;76.07;100314.25;2568091;30;137090;-40
2022/03/30 00:05:59;;;;;;;;;;;8.70;99.90;;;7.26;76.90;100318.84;2568590;30;137954;-40
2022/03/30 00:08:27;;;;;;;;;;;8.70;99.90;;;7.20;75.24;100320.50;2567428;30;139230;-40
2022/03/30 00:10:54;;;;;;;;;;;8.70;99.90;;;7.19;76.75;100302.56;2567274;30;137877;-40
2022/03/30 00:13:22;;;;;;;;;;;8.70;99.90;;;7.19;75.93;100307.97;2566996;30;138436;-40
2022/03/30 00:15:50;;;;;;;;;;;8.60;99.90;;;7.17;76.18;100301.94;2567735;30;137795;-40
2022/03/30 00:18:18;;;;;;;;;;;8.70;99.90;;;7.25;76.33;100301.75;2567026;30;139210;-40
2022/03/30 00:20:46;;;;;;;;;;;8.70;99.90;;;7.28;75.32;100298.63;2568293;30;137056;-40
2022/03/30 00:23:13;;;;;;;;;;;8.70;99.90;;;7.20;76.10;100298.81;2568271;30;139232;-40
2022/03/30 00:25:41;;;;;;;;;;;8.70;99.90;;;7.21;75.80;100295.06;2565417;30;138244;-40
2022/03/30 00:28:09;;;;;;;;;;;8.70;99.90;;;7.13;76.33;100292.50;2569017;30;138347;-40
2022/03/30 00:30:37;;;;;;;;;;;8.60;99.90;;;7.09;77.20;100286.66;2567936;30;137051;-40
2022/03/30 00:33:05;;;;;;;;;;;8.60;99.90;;;7.09;76.72;100285.81;2567603;30;137705;-40
2022/03/30 00:35:33;;;;;;;;;;;8.60;99.90;;;7.09;76.61;100291.22;2566499;30;136933;-40
2022/03/30 00:38:00;;;;;;;;;;;8.60;99.90;;;6.99;76.68;100287.03;2566578;30;138412;-40
2022/03/30 00:40:28;;;;;;;;;;;8.50;99.90;;;7.03;76.58;100293.72;2567840;30;137805;-40
2022/03/30 00:42:56;;;;;;;;;;;8.50;99.90;;;7.08;77.05;100292.28;2567926;30;138417;-40
2022/03/30 00:45:24;;;;;;;;;;;8.60;99.90;;;7.03;76.89;100301.03;2568018;30;137263;-40
2022/03/30 00:47:52;;;;;;;;;;;8.50;99.90;;;7.06;77.38;100287.06;2568005;30;139293;-40
2022/03/30 00:50:21;;;;;;;;;;;8.60;99.90;;;7.05;77.08;100298.94;2567778;30;136995;-40
2022/03/30 00:52:56;;;;;;;;;;;8.50;99.90;;;7.01;76.77;100295.78;2569142;30;138118;-40
2022/03/30 00:55:25;;;;;;;;;;;8.50;99.90;;;7.13;77.26;100292.50;2567665;30;137001;-40
2022/03/30 00:57:54;;;;;;;;;;;8.60;99.90;;;7.13;75.97;100292.50;2566407;30;138615;-40
2022/03/30 01:00:22;;;;;;;;;;;8.60;99.90;;;7.08;76.88;100289.56;2569919;30;137195;-40
2022/03/30 01:02:51;;;;;;;;;;;8.60;99.90;;;7.03;76.39;100282.06;2569202;30;138262;-40
2022/03/30 01:05:19;;;;;;;;;;;8.50;99.90;;;7.02;76.83;100286.63;2567186;30;137134;-40
2022/03/30 01:07:46;;;;;;;;;;;8.50;99.90;;;7.07;76.83;100277.03;2568737;30;137765;-40
2022/03/30 01:10:16;;;;;;;;;;;8.50;99.90;;;7.04;76.97;100289.16;2567582;30;137249;-40
2022/03/30 01:12:46;;;;;;;;;;;8.50;99.90;;;7.00;76.63;100277.00;2568679;30;137197;-40
2022/03/30 01:15:14;;;;;;;;;;;8.50;99.90;;;6.92;77.21;100275.31;2569699;30;137153;-40
2022/03/30 01:17:41;;;;;;;;;;;8.50;99.90;;;6.99;77.45;100273.47;2569988;30;139378;-40
2022/03/30 01:20:11;;;;;;;;;;;8.50;99.90;;;6.95;76.70;100257.78;2578116;30;145067;-41
2022/03/30 01:22:39;;;;;;;;;;;8.50;99.90;;;6.95;77.99;100260.50;2570799;30;138610;-41
2022/03/30 01:25:08;;;;;;;;;;;8.50;99.90;;;6.98;77.27;100266.38;2569949;30;137059;-41
2022/03/30 01:27:36;;;;;;;;;;;8.50;99.90;;;6.93;76.90;100258.00;2570339;30;138205;-41
2022/03/30 01:33:02;;;;;;;;;;;8.40;99.90;;;6.74;77.88;100257.72;2568721;30;138543;-41
2022/03/30 01:35:30;;;;;;;;;;;8.30;99.90;;;6.75;78.75;100256.66;2570406;30;137216;-41
2022/03/30 01:37:58;;;;;;;;;;;8.30;99.90;;;6.66;78.17;100248.91;2569765;30;137704;-42
2022/03/30 01:40:25;;;;;;;;;;;8.20;99.90;;;6.68;78.45;100252.25;2567148;30;137067;-41
2022/03/30 01:42:53;;;;;;;;;;;8.20;99.90;;;6.46;78.27;100228.78;2569762;30;137420;-41
2022/03/30 01:45:21;;;;;;;;;;;8.10;99.90;;;6.55;79.07;100239.47;2571426;30;137059;-41
2022/03/30 01:47:50;;;;;;;;;;;8.10;99.90;;;6.47;78.96;100235.88;2570520;30;137451;-41
2022/03/30 01:50:17;;;;;;;;;;;8.00;99.90;;;6.45;79.22;100237.09;2570364;30;136863;-41
2022/03/30 01:52:46;;;;;;;;;;;8.00;99.90;;;6.42;79.56;100232.09;2569460;30;138110;-42
2022/03/30 01:55:14;;;;;;;;;;;7.90;99.90;;;6.38;80.00;100225.41;2570086;30;137296;-41
2022/03/30 01:57:42;;;;;;;;;;;7.90;99.90;;;6.38;80.12;100220.84;2571697;30;138259;-41
2022/03/30 02:00:11;;;;;;;;;;;7.90;99.90;;;6.47;79.55;100218.78;2569440;30;137204;-41
2022/03/30 02:02:39;;;;;;;;;;;7.90;99.90;;;6.44;80.16;100211.03;2570548;30;139455;-41
2022/03/30 02:05:09;;;;;;;;;;;7.90;99.90;;;6.44;80.18;100206.47;2569615;30;137315;-41
2022/03/30 02:07:39;;;;;;;;;;;7.90;99.90;;;6.35;79.71;100199.53;2571404;30;138396;-41
2022/03/30 02:10:08;;;;;;;;;;;7.90;99.90;;;6.43;79.98;100196.69;2571979;30;137879;-43
2022/03/30 02:12:36;;;;;;;;;;;7.90;99.90;;;6.38;79.65;100207.28;2568350;30;138260;-41
2022/03/30 02:15:08;;;;;;;;;;;7.90;99.90;;;6.37;80.07;100208.31;2569436;30;137208;-41
2022/03/30 02:17:35;;;;;;;;;;;7.90;99.90;;;6.35;80.45;100196.81;2569352;30;138311;-41
2022/03/30 02:20:03;;;;;;;;;;;7.90;99.90;;;6.31;80.84;100206.38;2570551;30;137106;-41
2022/03/30 02:22:31;;;;;;;;;;;7.80;99.90;;;6.33;80.26;100207.03;2569577;30;138925;-41
2022/03/30 02:24:58;;;;;;;;;;;7.80;99.90;;;6.33;80.65;100198.91;2568445;30;137329;-41
2022/03/30 02:27:26;;;;;;;;;;;7.80;99.90;;;6.30;80.37;100193.88;2570123;30;137404;-41
2022/03/30 02:29:54;;;;;;;;;;;7.80;99.90;;;6.27;80.09;100197.00;2571112;30;137377;-41
2022/03/30 02:32:22;;;;;;;;;;;7.80;99.90;;;6.19;80.92;100195.28;2568422;30;139041;-41
2022/03/30 02:34:50;;;;;;;;;;;7.70;99.90;;;6.18;80.87;100197.16;2568099;30;137162;-41
2022/03/30 02:37:18;;;;;;;;;;;7.70;99.90;;;6.06;81.17;100189.78;2571263;30;138379;-41
2022/03/30 02:39:46;;;;;;;;;;;7.60;99.90;;;6.00;81.50;100192.22;2569484;30;137207;-41
2022/03/30 02:42:14;;;;;;;;;;;7.60;99.90;;;6.00;81.54;100191.38;2570602;30;137461;-41
2022/03/30 02:44:42;;;;;;;;;;;7.60;99.90;;;5.95;81.99;100177.59;2570166;30;137092;-41
2022/03/30 02:47:09;;;;;;;;;;;7.50;99.90;;;5.91;82.71;100174.44;2569044;30;138906;-41
2022/03/30 02:49:38;;;;;;;;;;;7.50;99.90;;;5.85;82.98;100169.81;2570948;30;138324;-41
2022/03/30 02:52:05;;;;;;;;;;;7.40;99.90;;;5.83;83.09;100175.41;2568922;30;137143;-41
2022/03/30 02:54:33;;;;;;;;;;;7.40;99.90;;;5.67;83.48;100168.44;2569926;30;138032;-41
2022/03/30 02:57:01;;;;;;;;;;;7.30;99.90;;;5.69;83.62;100168.25;2570600;30;137425;-41
2022/03/30 02:59:28;;;;;;;;;;;7.20;99.90;;;5.62;84.02;100173.59;2569055;30;136839;-41
2022/03/30 03:01:58;;;;;;;;;;;7.20;99.90;;;5.53;84.47;100167.47;2568303;30;138166;-41
2022/03/30 03:04:25;;;;;;;;;;;7.10;99.90;;;5.44;85.33;100168.66;2569365;30;136915;-41
2022/03/30 03:06:53;;;;;;;;;;;7.00;99.90;;;5.45;85.65;100164.94;2569926;30;137287;-41
2022/03/30 03:09:20;;;;;;;;;;;7.00;99.90;;;5.36;85.22;100163.41;2566862;30;137254;-41
2022/03/30 03:11:48;;;;;;;;;;;7.00;99.90;;;5.23;85.82;100167.63;2568125;30;138382;-42
2022/03/30 03:14:16;;;;;;;;;;;6.90;99.90;;;5.17;86.54;100163.00;2570429;30;137415;-41
2022/03/30 03:16:43;;;;;;;;;;;6.80;99.90;;;5.26;86.71;100167.25;2569686;30;138951;-41
2022/03/30 03:19:11;;;;;;;;;;;6.80;99.90;;;5.24;86.25;100161.19;2568322;30;137048;-41
2022/03/30 03:21:38;;;;;;;;;;;6.80;99.90;;;5.17;86.62;100160.31;2570646;30;138500;-41
2022/03/30 03:24:06;;;;;;;;;;;6.80;99.90;;;5.16;86.98;100156.75;2569665;30;137218;-41
2022/03/30 03:26:34;;;;;;;;;;;6.70;99.90;;;5.08;86.92;100161.47;2570425;30;138209;-41
2022/03/30 03:29:02;;;;;;;;;;;6.70;99.90;;;5.00;87.50;100157.03;2568037;30;136677;-41
2022/03/30 03:31:29;;;;;;;;;;;6.60;99.90;;;4.95;87.57;100165.69;2569157;30;138442;-42
2022/03/30 03:33:57;;;;;;;;;;;6.60;99.90;;;4.94;87.86;100166.72;2570239;30;137103;-41
2022/03/30 03:36:25;;;;;;;;;;;6.50;99.90;;;4.81;88.40;100159.31;2566723;30;138166;-41
2022/03/30 03:38:52;;;;;;;;;;;6.50;99.90;;;4.84;88.49;100156.22;2570088;30;136981;-41
2022/03/30 03:41:20;;;;;;;;;;;6.40;99.90;;;4.79;88.84;100157.84;2567691;30;138684;-42
2022/03/30 03:43:48;;;;;;;;;;;6.40;99.90;;;4.64;89.24;100147.03;2570429;30;137885;-41
2022/03/30 03:46:15;;;;;;;;;;;6.30;99.90;;;4.61;89.51;100145.56;2569403;30;138077;-41
2022/03/30 03:48:43;;;;;;;;;;;6.30;99.90;;;4.64;89.67;100144.34;2569218;30;137557;-42
2022/03/30 03:51:10;;;;;;;;;;;6.30;99.90;;;4.55;90.22;100146.34;2568338;30;138842;-41
2022/03/30 03:53:38;;;;;;;;;;;6.20;99.90;;;4.50;90.50;100146.03;2569079;30;136754;-44
2022/03/30 03:56:05;;;;;;;;;;;6.10;99.90;;;4.47;90.33;100147.28;2570245;30;139281;-41
2022/03/30 03:58:33;;;;;;;;;;;6.10;99.90;;;4.42;90.62;100147.84;2569315;30;137180;-41
2022/03/30 04:01:00;;;;;;;;;;;6.10;99.90;;;4.40;90.77;100146.38;2569315;30;138921;-41
2022/03/30 04:03:28;;;;;;;;;;;6.00;99.90;;;4.36;91.13;100145.91;2569291;30;138240;-41
2022/03/30 04:05:58;;;;;;;;;;;6.00;99.90;;;4.49;91.39;100149.78;2569613;30;137039;-41
2022/03/30 04:08:26;;;;;;;;;;;6.00;99.90;;;4.44;91.58;100137.69;2571372;30;137862;-41
2022/03/30 04:10:53;;;;;;;;;;;6.00;99.90;;;4.39;91.70;100140.13;2566048;30;138695;-41
2022/03/30 04:13:21;;;;;;;;;;;6.00;99.90;;;4.31;92.41;100141.03;2571900;30;138188;-41
2022/03/30 04:15:48;;;;;;;;;;;6.00;99.90;;;4.35;91.90;100141.53;2568787;30;137534;-41
2022/03/30 04:18:21;;;;;;;;;;;6.00;99.90;;;4.37;92.60;100133.22;2567485;30;137955;-41
2022/03/30 04:20:48;;;;;;;;;;;6.00;99.90;;;4.45;92.04;100131.25;2569785;30;138463;-41
2022/03/30 04:23:16;;;;;;;;;;;6.00;99.90;;;4.44;92.27;100124.16;2566665;30;137302;-41
2022/03/30 04:25:43;;;;;;;;;;;6.00;99.90;;;4.38;92.02;100134.91;2568912;30;138387;-41
2022/03/30 04:28:11;;;;;;;;;;;6.00;99.90;;;4.28;92.80;100129.81;2570860;30;137193;-41
2022/03/30 04:30:38;;;;;;;;;;;5.90;99.90;;;4.15;93.04;100125.06;2568297;30;137921;-42
2022/03/30 04:33:06;;;;;;;;;;;5.90;99.90;;;4.02;93.39;100120.31;2570475;30;136983;-41
2022/03/30 04:35:33;;;;;;;;;;;5.70;99.90;;;3.96;93.87;100116.50;2569529;30;139153;-41
2022/03/30 04:38:01;;;;;;;;;;;5.70;99.90;;;4.03;93.90;100122.00;2570604;30;137054;-41
2022/03/30 04:40:29;;;;;;;;;;;5.70;99.90;;;3.94;94.34;100117.69;2568662;30;138478;-41
2022/03/30 04:42:56;;;;;;;;;;;5.60;99.90;;;3.88;93.81;100098.53;2569948;30;137259;-41
2022/03/30 04:45:24;;;;;;;;;;;5.60;99.90;;;3.83;94.69;100116.28;2569795;30;138185;-41
2022/03/30 04:47:55;;;;;;;;;;;5.50;99.90;;;3.78;94.95;100111.47;2569479;30;137302;-41
2022/03/30 04:50:25;;;;;;;;;;;5.50;99.90;;;3.66;95.15;100108.41;2569171;30;138245;-41
2022/03/30 04:52:52;;;;;;;;;;;5.40;99.90;;;3.58;95.68;100108.47;2568944;30;137556;-41
2022/03/30 04:55:20;;;;;;;;;;;5.30;99.90;;;3.53;96.23;100109.03;2570375;30;138502;-41
2022/03/30 04:57:47;;;;;;;;;;;5.30;99.90;;;3.45;96.52;100111.81;2570723;30;137250;-41
2022/03/30 05:00:15;;;;;;;;;;;5.20;99.90;;;3.47;96.52;100111.63;2571912;30;138170;-41
2022/03/30 05:02:43;;;;;;;;;;;5.20;99.90;;;3.40;96.57;100115.06;2570340;30;137367;-41
2022/03/30 05:05:11;;;;;;;;;;;5.10;99.90;;;3.33;96.87;100115.97;2570127;30;136633;-41
2022/03/30 05:07:38;;;;;;;;;;;5.10;99.90;;;3.27;97.56;100114.81;2570197;30;137203;-41
2022/03/30 05:10:09;;;;;;;;;;;5.00;99.90;;;3.23;97.78;100110.81;2568669;30;138180;-41
2022/03/30 05:12:37;;;;;;;;;;;5.00;99.90;;;3.17;97.95;100112.38;2569237;30;137561;-41
2022/03/30 05:15:06;;;;;;;;;;;4.90;99.90;;;3.14;98.09;100118.13;2570314;30;139665;-42
2022/03/30 05:17:33;;;;;;;;;;;4.90;99.90;;;3.07;98.73;100122.56;2568546;30;138129;-41
2022/03/30 05:20:01;;;;;;;;;;;4.80;99.90;;;3.07;99.08;100117.19;2569926;30;139159;-41
2022/03/30 05:22:28;;;;;;;;;;;4.80;99.90;;;3.06;99.20;100118.19;2570353;30;137081;-42
2022/03/30 05:24:56;;;;;;;;;;;4.80;99.90;;;3.11;99.37;100113.97;2570817;30;138201;-42
2022/03/30 05:27:24;;;;;;;;;;;4.80;99.90;;;3.11;99.57;100113.09;2569782;30;137183;-41
2022/03/30 05:29:51;;;;;;;;;;;4.80;99.90;;;3.07;99.74;100112.66;2567377;30;137371;-41
2022/03/30 05:32:18;;;;;;;;;;;4.70;99.90;;;3.05;100.00;100111.13;2570404;30;136719;-42
2022/03/30 05:34:46;;;;;;;;;;;4.70;99.90;;;3.09;100.00;100115.13;2570406;30;138574;-43
2022/03/30 05:37:17;;;;;;;;;;;4.70;99.90;;;3.09;100.00;100110.59;2568818;30;137882;-41
2022/03/30 05:39:45;;;;;;;;;;;4.80;99.90;;;3.12;100.00;100112.09;2571198;30;138133;-41
2022/03/30 05:42:14;;;;;;;;;;;4.80;99.90;;;3.14;99.88;100110.03;2567302;30;137302;-41
2022/03/30 05:44:42;;;;;;;;;;;4.80;99.90;;;3.21;99.30;100110.16;2568685;30;137104;-41
2022/03/30 05:47:09;;;;;;;;;;;4.80;99.90;;;3.20;99.31;100109.34;2568441;30;136620;-42
2022/03/30 05:49:37;;;;;;;;;;;4.80;99.90;;;3.19;99.63;100113.06;2568370;30;139528;-41
2022/03/30 05:52:05;;;;;;;;;;;4.90;99.90;;;3.46;99.03;100102.69;2568867;30;137354;-41
2022/03/30 05:54:35;;;;;;;;;;;5.00;99.90;;;3.40;98.87;100103.41;2569429;30;137834;-41
2022/03/30 05:57:05;;;;;;;;;;;5.00;99.90;;;3.36;98.98;100110.19;2567724;30;136923;-41
2022/03/30 05:59:34;;;;;;;;;;;5.00;99.90;;;3.53;98.90;100116.28;2570311;30;138128;-41
2022/03/30 06:02:04;;;;;;;;;;;5.10;99.90;;;3.49;98.73;100114.97;2567611;30;137415;-41
2022/03/30 06:04:32;;;;;;;;;;;5.10;99.90;;;3.57;98.90;100121.13;2568952;30;138835;-41
2022/03/30 06:07:00;;;;;;;;;;;5.10;99.90;;;3.68;97.92;100119.00;2570857;30;137096;-41
2022/03/30 06:09:29;;;;;;;;;;;5.20;99.90;;;3.64;97.75;100121.22;2567087;30;138280;-41
2022/03/30 06:12:16;;;;;;;;;;;5.20;99.90;;;3.71;97.39;100122.16;2571213;30;136973;-41
2022/03/30 06:14:45;;;;;;;;;;;5.30;99.90;;;3.74;97.02;100121.78;2571983;30;138127;-41
2022/03/30 06:17:15;;;;;;;;;;;5.30;99.90;;;3.71;96.89;100124.00;2571115;30;137065;-41
2022/03/30 06:19:45;;;;;;;;;;;5.30;99.90;;;3.77;96.83;100133.22;2570343;30;138894;-41
2022/03/30 06:22:13;;;;;;;;;;;5.40;99.90;;;3.76;96.09;100134.25;2567261;30;137189;-42
2022/03/30 06:24:41;;;;;;;;;;;5.40;99.90;;;3.78;97.04;100135.75;2570086;30;138433;-41
2022/03/30 06:27:10;;;;;;;;;;;5.40;99.90;;;3.72;96.51;100136.50;2569310;30;137007;-41
2022/03/30 06:29:39;;;;;;;;;;;5.40;99.90;;;3.77;96.55;100144.88;2569115;30;138857;-41
2022/03/30 06:32:07;;;;;;;;;;;5.40;99.90;;;3.81;96.09;100143.50;2570694;30;136753;-41
2022/03/30 06:34:37;;;;;;;;;;;5.40;99.90;;;3.70;96.03;100138.53;2568985;30;138507;-41
2022/03/30 06:37:05;;;;;;;;;;;5.40;99.90;;;3.74;96.80;100140.69;2566620;30;136988;-41
2022/03/30 06:39:33;;;;;;;;;;;5.40;99.90;;;3.73;96.13;100146.28;2569281;30;138173;-41
2022/03/30 06:42:07;;;;;;;;;;;5.40;99.90;;;3.75;96.34;100146.94;2570276;30;137736;-41
2022/03/30 06:44:34;;;;;;;;;;;5.40;99.90;;;3.71;96.20;100148.28;2570161;30;137288;-41
2022/03/30 06:47:02;;;;;;;;;;;5.40;99.90;;;3.68;95.71;100141.41;2569947;30;136991;-42
2022/03/30 06:49:30;;;;;;;;;;;5.30;99.90;;;3.68;96.17;100145.97;2568980;30;138549;-41
2022/03/30 06:51:57;;;;;;;;;;;5.30;99.90;;;3.68;96.10;100152.22;2569786;30;137178;-41
2022/03/30 06:54:25;;;;;;;;;;;5.30;99.90;;;3.79;95.80;100147.38;2570804;30;138212;-41
2022/03/30 06:56:53;;;;;;;;;;;5.40;99.90;;;3.93;94.89;100153.81;2569514;30;137356;-41
2022/03/30 06:59:21;;;;;;;;;;;5.50;99.90;;;4.05;95.44;100155.03;2570377;30;139191;-41
2022/03/30 07:01:48;;;;;;;;;;;5.50;99.90;;;4.20;95.30;100156.88;2569027;30;137760;-41
2022/03/30 07:04:16;;;;;;;;;;;5.70;99.90;;;4.28;94.48;100157.63;2569733;30;138046;-40
2022/03/30 07:12:15;;;;;;;;;;;6.00;99.90;;;4.68;92.56;100151.88;2570217;30;137025;-42
2022/03/30 07:14:42;;;;;;;;;;;6.10;99.90;;;4.81;90.66;100155.78;2570419;30;138102;-41
2022/03/30 07:17:10;;;;;;;;;;;6.30;99.90;;;4.85;90.61;100147.09;2565850;30;138250;-41
2022/03/30 07:19:38;;;;;;;;;;;6.30;99.90;;;4.95;90.52;100144.06;2569654;30;139029;-41
2022/03/30 07:22:10;;;;;;;;;;;6.40;99.90;;;5.02;89.63;100152.25;2571266;30;138280;-42
2022/03/30 07:24:38;;;;;;;;;;;6.50;99.90;;;5.07;88.55;100148.97;2568292;30;138582;-42
2022/03/30 07:27:05;;;;;;;;;;;6.60;99.90;;;5.22;89.86;100143.50;2568361;30;137087;-42
2022/03/30 07:29:33;;;;;;;;;;;6.60;99.90;;;5.41;89.63;100144.72;2568053;30;138467;-41
2022/03/30 07:32:00;;;;;;;;;;;6.80;99.90;;;5.58;88.68;100145.25;2568558;30;138131;-42
2022/03/30 07:34:28;;;;;;;;;;;6.90;99.90;;;5.59;87.07;100131.53;2566704;30;138219;-41
2022/03/30 07:36:58;;;;;;;;;;;7.00;99.90;;;5.60;87.16;100138.63;2568470;30;137944;-41
2022/03/30 07:39:25;;;;;;;;;;;7.10;99.90;;;5.73;86.23;100132.47;2566666;30;138611;-42
2022/03/30 07:41:53;;;;;;;;;;;7.20;99.90;;;5.80;85.64;100128.97;2567581;30;138174;-41
2022/03/30 07:44:20;;;;;;;;;;;7.20;99.90;;;5.94;85.79;100122.59;2567602;30;138148;-41
2022/03/30 07:46:48;;;;;;;;;;;7.30;99.90;;;6.12;84.72;100124.84;2568451;30;137293;-41
2022/03/30 07:49:16;;;;;;;;;;;7.50;99.90;;;6.17;83.12;100125.06;2569081;30;137703;-41
2022/03/30 07:51:43;;;;;;;;;;;7.60;99.90;;;6.24;82.34;100122.41;2568683;30;136888;-41
2022/03/30 07:54:11;;;;;;;;;;;7.60;99.90;;;6.25;82.03;100118.66;2566670;30;137472;-41
2022/03/30 07:56:38;;;;;;;;;;;7.70;99.90;;;6.17;81.87;100108.81;2567933;30;136802;-41
2022/03/30 07:59:06;;;;;;;;;;;7.70;99.90;;;6.28;83.11;100123.66;2568906;30;138308;-41
2022/03/30 08:01:33;;;;;;;;;;;7.70;99.90;;;6.42;82.84;100119.13;2566905;30;137255;-41
2022/03/30 08:04:01;;;;;;;;;;;7.90;99.90;;;6.44;80.75;100125.19;2568536;30;137036;-41
2022/03/30 08:06:29;;;;;;;;;;;7.90;99.90;;;6.56;80.82;100120.00;2565844;30;137525;-41
2022/03/30 08:08:56;;;;;;;;;;;8.00;99.90;;;6.70;80.57;100115.47;2568173;30;139137;-41
2022/03/30 08:11:24;;;;;;;;;;;8.10;99.90;;;6.89;81.57;100116.56;2567079;30;137337;-41
2022/03/30 08:13:52;;;;;;;;;;;8.20;99.90;;;7.04;80.55;100121.78;2568500;30;138271;-41
2022/03/30 08:16:19;;;;;;;;;;;8.40;99.90;;;7.15;79.14;100120.34;2568278;30;136731;-42
2022/03/30 08:18:46;;;;;;;;;;;8.50;99.90;;;7.14;77.26;100117.81;2567854;30;138066;-41
2022/03/30 08:24:01;;;;;;;;;;;8.60;99.90;;;7.47;76.93;100108.88;2569401;30;137356;-42
2022/03/30 08:26:31;;;;;;;;;;;8.80;99.90;;;7.53;75.75;100112.63;2567706;30;137360;-41
2022/03/30 08:28:58;;;;;;;;;;;8.90;99.90;;;7.53;74.07;100108.03;2566810;30;138920;-41
2022/03/30 08:31:26;;;;;;;;;;;8.90;99.90;;;7.71;74.69;100115.53;2568611;30;136798;-41
2022/03/30 08:33:54;;;;;;;;;;;9.00;99.90;;;7.86;74.56;100109.88;2566990;30;138172;-42
2022/03/30 08:36:21;;;;;;;;;;;9.20;99.90;;;7.97;73.61;100115.72;2568122;30;137838;-41
2022/03/30 08:38:49;;;;;;;;;;;9.30;99.90;;;7.89;73.18;100112.16;2565934;30;139014;-42
2022/03/30 08:41:16;;;;;;;;;;;9.30;99.90;;;8.06;73.45;100111.72;2567667;30;137866;-41
2022/03/30 08:43:44;;;;;;;;;;;9.40;99.90;;;8.08;72.96;100109.63;2568165;30;137111;-42
2022/03/30 08:46:12;;;;;;;;;;;9.50;99.90;;;8.23;73.20;100108.53;2568153;30;137298;-42
2022/03/30 08:48:41;;;;;;;;;;;9.50;99.90;;;8.33;70.75;100106.19;2568146;30;137128;-41
2022/03/30 08:51:10;;;;;;;;;;;9.60;99.90;;;8.37;71.44;100101.97;2568037;30;137295;-42
2022/03/30 08:53:37;;;;;;;;;;;9.70;99.90;;;8.38;70.67;100109.09;2566078;30;139144;-41
2022/03/30 08:56:05;;;;;;;;;;;9.80;99.90;;;8.46;70.87;100110.72;2568429;30;136931;-41
2022/03/30 08:58:33;;;;;;;;;;;9.80;99.90;;;8.38;69.48;100098.22;2567794;30;137252;-41
2022/03/30 09:01:11;;;;;;;;;;;9.80;99.90;;;8.44;69.41;100108.22;2566792;30;137158;-41
2022/03/30 09:04:00;;;;;;;;;;;9.90;99.90;;;8.46;68.74;100088.97;2568065;30;139854;-41
2022/03/30 09:06:43;;;;;;;;;;;9.90;99.90;;;8.54;68.30;100102.34;2568179;30;137870;-41
2022/03/30 09:09:11;;;;;;;;;;;9.90;99.90;;;8.68;69.53;100103.13;2569383;30;137271;-41
2022/03/30 09:11:41;;;;;;;;;;;10.00;99.90;;;8.76;67.54;100099.31;2566299;30;137891;-41
2022/03/30 09:14:10;;;;;;;;;;;10.10;99.90;;;8.86;69.82;100088.78;2567290;30;138929;-41
2022/03/30 09:16:46;;;;;;;;;;;10.20;99.90;;;9.00;68.19;100094.97;2568241;30;137037;-41
2022/03/30 09:19:15;;;;;;;;;;;10.30;99.90;;;9.04;66.85;100096.22;2568257;30;138268;-41
2022/03/30 09:21:46;;;;;;;;;;;10.40;99.90;;;9.17;66.27;100099.88;2568218;30;137382;-41
2022/03/30 09:24:18;;;;;;;;;;;10.50;99.90;;;9.28;66.01;100101.91;2568743;30;139179;-41
2022/03/30 09:26:47;;;;;;;;;;;10.60;99.90;;;9.40;65.06;100093.81;2566223;30;137263;-41
2022/03/30 09:29:15;;;;;;;;;;;10.70;99.90;;;9.50;64.99;100093.31;2569188;30;138244;-41
2022/03/30 09:31:43;;;;;;;;;;;10.80;99.90;;;9.51;64.08;100094.97;2569034;30;136760;-41
2022/03/30 09:34:11;;;;;;;;;;;10.80;99.90;;;9.51;64.07;100094.97;2568993;30;137184;-41
2022/03/30 09:36:41;;;;;;;;;;;10.90;99.90;;;9.63;67.46;100084.19;2569036;30;137961;-41
2022/03/30 09:39:28;;;;;;;;;;;10.90;99.90;;;9.40;65.00;100087.56;2567786;30;138167;-42
2022/03/30 09:41:58;;;;;;;;;;;10.80;99.90;;;9.54;65.82;100088.25;2568305;30;136766;-41
2022/03/30 09:44:30;;;;;;;;;;;10.90;99.90;;;9.56;64.17;100083.44;2567332;30;139929;-41
2022/03/30 09:47:06;;;;;;;;;;;10.90;99.90;;;9.75;62.89;100078.84;2567708;30;137308;-41
2022/03/30 09:49:53;;;;;;;;;;;11.00;99.90;;;9.84;64.46;100082.94;2569134;30;138448;-41
2022/03/30 09:52:30;;;;;;;;;;;11.10;99.90;;;9.78;63.88;100079.22;2566536;30;137238;-41
2022/03/30 09:55:03;;;;;;;;;;;11.10;99.90;;;10.00;66.60;100075.22;2567234;30;138339;-41
2022/03/30 09:57:37;;;;;;;;;;;11.20;99.90;;;10.17;64.49;100059.94;2567452;30;137821;-42
2022/03/30 10:00:09;;;;;;;;;;;11.40;99.90;;;9.99;62.77;100059.94;2567689;30;138373;-41
2022/03/30 10:02:40;;;;;;;;;;;11.40;99.90;;;10.01;61.86;100057.81;2565963;30;137505;-41
2022/03/30 10:05:10;;;;;;;;;;;11.40;99.90;;;10.17;64.06;100059.09;2568587;30;137462;-41
2022/03/30 10:07:39;;;;;;;;;;;11.40;99.90;;;10.39;64.60;100055.88;2568347;30;137285;-42
2022/03/30 10:10:11;;;;;;;;;;;11.60;99.90;;;10.48;61.59;100055.38;2567614;30;139484;-41
2022/03/30 10:12:39;;;;;;;;;;;11.70;99.90;;;10.54;61.33;100048.16;2568239;30;137017;-41
2022/03/30 10:15:09;;;;;;;;;;;11.80;99.90;;;10.60;59.24;100046.38;2568418;30;138204;-42
2022/03/30 10:17:36;;;;;;;;;;;11.80;99.90;;;10.50;58.23;100046.97;2569159;30;137176;-42
2022/03/30 10:20:06;;;;;;;;;;;11.90;99.40;;;10.49;59.30;100040.66;2567928;30;137507;-42
2022/03/30 10:22:45;;;;;;;;;;;11.80;99.90;;;10.34;58.25;100046.50;2568935;30;137414;-41
2022/03/30 10:25:34;;;;;;;;;;;11.80;99.30;;;10.44;58.65;100031.50;2566990;30;137292;-41
2022/03/30 10:28:19;;;;;;;;;;;11.80;99.30;;;10.32;59.79;100045.91;2569294;30;136819;-41
2022/03/30 10:30:55;;;;;;;;;;;11.80;99.90;;;10.40;60.58;100047.50;2568795;30;138470;-41
2022/03/30 10:33:34;;;;;;;;;;;11.80;99.90;;;10.61;61.29;100042.63;2566897;30;137369;-41
2022/03/30 10:36:23;;;;;;;;;;;11.80;99.90;;;10.85;60.05;100034.47;2567942;30;137300;-41
2022/03/30 10:39:12;;;;;;;;;;;12.00;99.90;;;11.04;57.77;100030.59;2568045;30;136901;-42
2022/03/30 10:42:11;;;;;;;;;;;12.20;99.90;;;11.17;57.61;100035.00;2568159;30;138191;-42
2022/03/30 10:44:43;;;;;;;;;;;12.40;99.30;;;11.23;58.83;100027.78;2568909;30;137370;-41
2022/03/30 10:47:20;;;;;;;;;;;12.50;99.70;;;11.17;59.15;100013.19;2569016;30;138870;-41
2022/03/30 10:49:48;;;;;;;;;;;12.50;98.90;;;11.19;57.83;100026.59;2568960;30;137084;-42
2022/03/30 10:52:35;;;;;;;;;;;12.50;98.80;;;10.93;56.75;100023.25;2568697;30;138396;-41
2022/03/30 10:55:25;;;;;;;;;;;12.40;98.40;;;11.01;57.48;100008.44;2567748;30;136968;-41
2022/03/30 10:57:53;;;;;;;;;;;12.40;98.10;;;11.04;57.49;100006.03;2566680;30;137436;-42
2022/03/30 11:00:23;;;;;;;;;;;12.40;98.10;;;11.29;58.42;100001.44;2568992;30;137025;-42
2022/03/30 11:02:52;;;;;;;;;;;12.50;99.10;;;11.55;57.92;100002.03;2568279;30;138884;-41
2022/03/30 11:05:28;;;;;;;;;;;12.70;99.10;;;11.38;54.15;100008.19;2568225;30;136935;-41
2022/03/30 11:07:55;;;;;;;;;;;12.80;97.70;;;11.27;55.97;100001.66;2569510;30;137054;-42
2022/03/30 11:10:29;;;;;;;;;;;12.70;97.40;;;11.33;56.71;100000.72;2568860;30;137856;-42
2022/03/30 11:13:02;;;;;;;;;;;12.60;97.70;;;11.61;56.55;99996.41;2565977;30;138252;-42
2022/03/30 11:15:31;;;;;;;;;;;12.80;97.60;;;11.87;55.52;99993.41;2568422;30;137515;-41
2022/03/30 11:18:27;;;;;;;;;;;12.90;98.00;;;11.89;53.48;99989.34;2567691;30;137099;-39
2022/03/30 11:21:15;;;;;;;;;;;13.10;97.00;;;12.17;57.82;99987.75;2567495;30;137060;-42
2022/03/30 11:24:07;;;;;;;;;;;13.20;98.30;;;12.08;52.26;99984.59;2567587;30;137764;-41
2022/03/30 11:27:00;;;;;;;;;;;13.40;95.50;;;12.18;57.12;99981.19;2569333;30;136875;-41
2022/03/30 11:29:53;;;;;;;;;;;13.40;97.50;;;12.44;53.62;99976.22;2568052;30;138796;-41
2022/03/30 11:32:28;;;;;;;;;;;13.50;96.50;;;12.73;56.20;99972.63;2567665;30;136793;-39
2022/03/30 11:34:58;;;;;;;;;;;13.70;97.60;;;12.85;55.04;99972.53;2566694;30;137133;-42
2022/03/30 11:37:43;;;;;;;;;;;13.90;97.40;;;12.80;52.86;99963.16;2566324;30;138108;-42